createdAt,value
2023-04-04T00:02:04.253Z,100.00
2023-04-04T00:04:37.470Z,100.00
2023-04-04T00:07:10.442Z,100.00
2023-04-04T00:09:43.568Z,100.00
2023-04-04T00:12:17.894Z,100.00
2023-04-04T00:14:51.309Z,100.00
2023-04-04T00:17:24.811Z,100.00
2023-04-04T00:19:58.325Z,100.00
2023-04-04T00:22:31.839Z,100.00
2023-04-04T00:25:05.066Z,100.00
2023-04-04T00:27:38.541Z,100.00
2023-04-04T00:30:13.400Z,100.00
2023-04-04T00:32:47.455Z,100.00
2023-04-04T00:35:20.610Z,100.00
2023-04-04T00:37:53.958Z,100.00
2023-04-04T00:40:26.886Z,100.00
2023-04-04T00:43:02.207Z,100.00
2023-04-04T00:45:36.648Z,100.00
2023-04-04T00:48:09.509Z,100.00
2023-04-04T00:50:42.923Z,100.00
2023-04-04T00:53:16.622Z,100.00
2023-04-04T00:55:49.602Z,100.00
2023-04-04T00:58:22.829Z,100.00
2023-04-04T01:00:56.013Z,100.00
2023-04-04T01:03:29.875Z,100.00
2023-04-04T01:06:04.443Z,100.00
2023-04-04T01:08:40.574Z,100.00
2023-04-04T01:11:14.383Z,100.00
2023-04-04T01:13:47.702Z,100.00
2023-04-04T01:16:21.903Z,100.00
2023-04-04T01:18:55.304Z,100.00
2023-04-04T01:21:29.840Z,100.00
2023-04-04T01:24:04.819Z,100.00
2023-04-04T01:26:39.788Z,100.00
2023-04-04T01:29:12.728Z,100.00
2023-04-04T01:31:56.693Z,100.00
2023-04-04T01:34:53.348Z,100.00
2023-04-04T01:37:48.835Z,100.00
2023-04-04T01:40:35.835Z,100.00
2023-04-04T01:43:10.599Z,100.00
2023-04-04T01:45:46.437Z,100.00
2023-04-04T01:48:19.718Z,100.00
2023-04-04T01:50:54.331Z,100.00
2023-04-04T01:53:28.848Z,100.00
2023-04-04T01:56:02.819Z,100.00
2023-04-04T01:58:38.026Z,100.00
2023-04-04T02:01:11.283Z,100.00
2023-04-04T02:03:44.808Z,100.00
2023-04-04T02:06:17.932Z,100.00
2023-04-04T02:08:52.348Z,100.00
2023-04-04T02:11:26.265Z,100.00
2023-04-04T02:13:59.397Z,100.00
2023-04-04T02:16:33.795Z,100.00
2023-04-04T02:19:06.567Z,100.00
2023-04-04T02:21:41.747Z,100.00
2023-04-04T02:24:14.644Z,100.00
2023-04-04T02:26:47.525Z,100.00
2023-04-04T02:29:20.988Z,100.00
2023-04-04T02:31:53.961Z,100.00
2023-04-04T02:34:26.877Z,100.00
2023-04-04T02:37:01.012Z,100.00
2023-04-04T02:39:34.516Z,100.00
2023-04-04T02:42:07.810Z,100.00
2023-04-04T02:44:40.986Z,100.00
2023-04-04T02:47:15.446Z,100.00
2023-04-04T02:49:48.686Z,100.00
2023-04-04T02:52:23.315Z,100.00
2023-04-04T02:54:56.158Z,100.00
2023-04-04T02:57:30.922Z,100.00
2023-04-04T03:00:04.781Z,100.00
2023-04-04T03:02:37.537Z,100.00
2023-04-04T03:05:11.546Z,100.00
2023-04-04T03:07:44.474Z,100.00
2023-04-04T03:10:17.379Z,100.00
2023-04-04T03:12:50.245Z,100.00
2023-04-04T03:15:24.014Z,100.00
2023-04-04T03:17:57.375Z,100.00
2023-04-04T03:20:31.802Z,100.00
2023-04-04T03:23:04.584Z,100.00
2023-04-04T03:25:37.469Z,100.00
2023-04-04T03:28:11.520Z,100.00
2023-04-04T03:30:45.149Z,100.00
2023-04-04T03:33:18.470Z,100.00
2023-04-04T03:35:51.511Z,100.00
2023-04-04T03:38:25.962Z,100.00
2023-04-04T03:41:05.899Z,100.00
2023-04-04T03:43:39.357Z,100.00
2023-04-04T03:46:14.369Z,100.00
2023-04-04T03:48:48.947Z,100.00
2023-04-04T03:51:28.879Z,100.00
2023-04-04T03:54:01.842Z,100.00
2023-04-04T03:56:35.085Z,100.00
2023-04-04T03:59:09.906Z,100.00
2023-04-04T04:01:42.891Z,100.00
2023-04-04T04:04:16.470Z,100.00
2023-04-04T04:06:49.965Z,100.00
2023-04-04T04:09:23.260Z,100.00
2023-04-04T04:11:56.985Z,100.00
2023-04-04T04:14:29.993Z,100.00
2023-04-04T04:17:04.985Z,100.00
2023-04-04T04:19:39.655Z,100.00
2023-04-04T04:22:13.265Z,100.00
2023-04-04T04:24:46.424Z,100.00
2023-04-04T04:27:19.851Z,100.00
2023-04-04T04:29:53.078Z,100.00
2023-04-04T04:32:27.630Z,100.00
2023-04-04T04:35:01.763Z,100.00
2023-04-04T04:37:36.833Z,100.00
2023-04-04T04:40:11.468Z,100.00
2023-04-04T04:42:47.723Z,100.00
2023-04-04T04:45:22.936Z,100.00
2023-04-04T04:47:57.783Z,100.00
2023-04-04T04:50:31.346Z,100.00
2023-04-04T04:53:05.137Z,100.00
2023-04-04T04:55:38.873Z,100.00
2023-04-04T04:58:14.361Z,100.00
2023-04-04T05:00:49.740Z,100.00
2023-04-04T05:03:23.385Z,100.00
2023-04-04T05:05:57.634Z,100.00
2023-04-04T05:08:30.730Z,100.00
2023-04-04T05:11:09.349Z,100.00
2023-04-04T05:13:43.364Z,100.00
2023-04-04T05:16:16.634Z,100.00
2023-04-04T05:18:50.490Z,100.00
2023-04-04T05:21:24.035Z,100.00
2023-04-04T05:23:59.001Z,100.00
2023-04-04T05:26:32.818Z,100.00
2023-04-04T05:29:05.971Z,100.00
2023-04-04T05:31:39.269Z,100.00
2023-04-04T05:34:14.093Z,100.00
2023-04-04T05:36:47.796Z,100.00
2023-04-04T05:39:21.734Z,100.00
2023-04-04T05:41:59.267Z,100.00
2023-04-04T05:44:33.972Z,100.00
2023-04-04T05:47:07.882Z,100.00
2023-04-04T05:49:42.436Z,100.00
2023-04-04T05:52:17.280Z,100.00
2023-04-04T05:54:51.264Z,100.00
2023-04-04T05:57:25.558Z,100.00
2023-04-04T06:00:00.280Z,100.00
2023-04-04T06:02:35.609Z,100.00
2023-04-04T06:05:10.651Z,100.00
2023-04-04T06:07:44.440Z,100.00
2023-04-04T06:10:17.877Z,100.00
2023-04-04T06:12:51.758Z,100.00
2023-04-04T06:15:25.845Z,100.00
2023-04-04T06:17:59.919Z,100.00
2023-04-04T06:20:35.871Z,100.00
2023-04-04T06:23:10.385Z,100.00
2023-04-04T06:25:45.015Z,100.00
2023-04-04T06:28:18.468Z,100.00
2023-04-04T06:30:52.754Z,100.00
2023-04-04T06:33:28.392Z,100.00
2023-04-04T06:36:01.739Z,100.00
2023-04-04T06:38:35.465Z,100.00
2023-04-04T06:41:13.546Z,100.00
2023-04-04T06:43:48.206Z,100.00
2023-04-04T06:46:22.014Z,100.00
2023-04-04T06:48:55.336Z,100.00
2023-04-04T06:51:29.330Z,100.00
2023-04-04T06:54:03.403Z,100.00
2023-04-04T06:56:37.004Z,100.00
2023-04-04T06:59:13.041Z,100.00
2023-04-04T07:01:46.995Z,100.00
2023-04-04T07:04:22.853Z,100.00
2023-04-04T07:06:56.003Z,100.00
2023-04-04T07:09:29.845Z,100.00
2023-04-04T07:12:03.060Z,100.00
2023-04-04T07:14:36.867Z,99.26
2023-04-04T07:17:17.465Z,98.01
2023-04-04T07:19:45.122Z,96.21
2023-04-04T07:22:18.097Z,96.32
2023-04-04T07:24:51.772Z,96.95
2023-04-04T07:27:25.021Z,94.80
2023-04-04T07:29:58.507Z,94.48
2023-04-04T07:32:31.755Z,92.94
2023-04-04T07:35:07.236Z,92.41
2023-04-04T07:37:40.965Z,91.71
2023-04-04T07:40:14.566Z,92.12
2023-04-04T07:42:50.728Z,91.88
2023-04-04T07:45:23.765Z,91.02
2023-04-04T07:47:56.843Z,90.95
2023-04-04T07:50:29.920Z,91.24
2023-04-04T07:53:03.835Z,89.47
2023-04-04T07:55:36.922Z,88.78
2023-04-04T07:58:11.129Z,89.58
2023-04-04T08:00:44.122Z,89.22
2023-04-04T08:03:19.599Z,89.04
2023-04-04T08:05:52.967Z,87.69
2023-04-04T08:08:26.295Z,87.46
2023-04-04T08:10:59.483Z,87.38
2023-04-04T08:13:33.452Z,86.42
2023-04-04T08:16:06.845Z,87.56
2023-04-04T08:18:41.063Z,87.79
2023-04-04T08:21:16.110Z,88.57
2023-04-04T08:23:50.216Z,89.93
2023-04-04T08:26:23.577Z,88.47
2023-04-04T08:28:56.622Z,88.08
2023-04-04T08:31:31.086Z,87.62
2023-04-04T08:34:06.423Z,85.92
2023-04-04T08:36:39.852Z,85.64
2023-04-04T08:39:13.894Z,84.44
2023-04-04T08:41:48.605Z,84.39
2023-04-04T08:44:23.212Z,83.35
2023-04-04T08:46:57.124Z,83.05
2023-04-04T08:49:35.473Z,83.48
2023-04-04T08:52:09.570Z,84.01
2023-04-04T08:54:44.221Z,84.01
2023-04-04T08:57:17.905Z,83.94
2023-04-04T08:59:51.244Z,84.16
2023-04-04T09:02:47.158Z,83.67
2023-04-04T09:05:21.396Z,83.56
2023-04-04T09:07:56.702Z,83.50
2023-04-04T09:10:30.210Z,84.39
2023-04-04T09:13:14.717Z,83.68
2023-04-04T09:15:45.000Z,83.61
2023-04-04T09:18:19.266Z,83.09
2023-04-04T09:20:53.607Z,83.03
2023-04-04T09:23:27.624Z,83.31
2023-04-04T09:26:08.282Z,82.80
2023-04-04T09:28:42.665Z,82.92
2023-04-04T09:31:17.653Z,81.84
2023-04-04T09:33:53.336Z,80.83
2023-04-04T09:36:28.303Z,80.65
2023-04-04T09:39:02.170Z,79.07
2023-04-04T09:41:35.751Z,79.85
2023-04-04T09:44:13.425Z,79.62
2023-04-04T09:46:46.635Z,79.47
2023-04-04T09:49:22.945Z,79.86
2023-04-04T09:51:56.870Z,81.05
2023-04-04T09:54:30.825Z,80.96
2023-04-04T09:57:04.967Z,80.59
2023-04-04T09:59:39.179Z,81.22
2023-04-04T10:02:12.725Z,79.22
2023-04-04T10:04:48.893Z,79.21
2023-04-04T10:07:22.077Z,79.06
2023-04-04T10:09:55.166Z,78.42
2023-04-04T10:12:29.189Z,78.44
2023-04-04T10:15:03.521Z,78.26
2023-04-04T10:17:42.810Z,78.35
2023-04-04T10:20:16.417Z,77.94
2023-04-04T10:22:52.152Z,77.16
2023-04-04T10:25:26.010Z,76.48
2023-04-04T10:27:58.863Z,75.31
2023-04-04T10:30:33.255Z,75.26
2023-04-04T10:33:17.672Z,75.74
2023-04-04T10:35:54.261Z,76.07
2023-04-04T10:38:30.571Z,75.37
2023-04-04T10:41:04.950Z,74.80
2023-04-04T10:43:45.505Z,73.93
2023-04-04T10:46:20.775Z,74.00
2023-04-04T10:48:54.498Z,73.54
2023-04-04T10:51:27.778Z,73.39
2023-04-04T10:54:01.512Z,73.50
2023-04-04T10:56:36.001Z,73.67
2023-04-04T10:59:17.639Z,73.41
2023-04-04T11:01:53.478Z,73.02
2023-04-04T11:04:42.984Z,72.92
2023-04-04T11:07:18.315Z,72.96
2023-04-04T11:09:57.274Z,72.20
2023-04-04T11:12:38.346Z,72.43
2023-04-04T11:15:14.704Z,72.49
2023-04-04T11:18:17.280Z,71.88
2023-04-04T11:20:41.061Z,72.50
2023-04-04T11:23:27.384Z,72.53
2023-04-04T11:26:01.470Z,72.28
2023-04-04T11:28:46.614Z,72.24
2023-04-04T11:31:24.310Z,72.21
2023-04-04T11:34:11.974Z,71.80
2023-04-04T11:36:52.294Z,71.84
2023-04-04T11:39:33.883Z,71.94
2023-04-04T11:42:16.100Z,72.49
2023-04-04T11:45:04.584Z,72.75
2023-04-04T11:47:38.223Z,72.97
2023-04-04T11:50:13.930Z,73.13
2023-04-04T11:52:47.019Z,71.73
2023-04-04T11:55:27.203Z,71.56
2023-04-04T11:58:13.044Z,71.42
2023-04-04T12:00:48.312Z,71.01
2023-04-04T12:03:22.258Z,70.64
2023-04-04T12:05:55.769Z,70.40
2023-04-04T12:08:30.868Z,70.27
2023-04-04T12:11:06.857Z,71.08
2023-04-04T12:13:47.146Z,70.95
2023-04-04T12:16:23.231Z,70.10
2023-04-04T12:18:58.307Z,68.52
2023-04-04T12:21:33.868Z,68.74
2023-04-04T12:24:09.778Z,68.65
2023-04-04T12:26:46.117Z,68.64
2023-04-04T12:29:22.471Z,68.86
2023-04-04T12:31:57.880Z,68.59
2023-04-04T12:34:39.198Z,68.27
2023-04-04T12:37:14.652Z,68.21
2023-04-04T12:39:52.684Z,67.28
2023-04-04T12:42:26.739Z,66.99
2023-04-04T12:44:59.741Z,66.91
2023-04-04T12:47:33.423Z,65.49
2023-04-04T12:50:08.746Z,65.97
2023-04-04T12:52:42.761Z,66.73
2023-04-04T12:55:15.993Z,66.78
2023-04-04T12:57:50.529Z,66.89
2023-04-04T13:00:24.211Z,65.59
2023-04-04T13:02:58.690Z,64.99
2023-04-04T13:05:42.506Z,64.84
2023-04-04T13:08:16.221Z,65.03
2023-04-04T13:11:05.727Z,65.40
2023-04-04T13:13:41.453Z,65.22
2023-04-04T13:16:18.706Z,64.63
2023-04-04T13:18:52.593Z,64.24
2023-04-04T13:21:26.504Z,63.87
2023-04-04T13:23:59.439Z,63.96
2023-04-04T13:26:32.322Z,64.44
2023-04-04T13:29:05.672Z,63.77
2023-04-04T13:31:40.108Z,63.06
2023-04-04T13:34:13.132Z,62.63
2023-04-04T13:36:47.469Z,62.84
2023-04-04T13:39:21.272Z,62.46
2023-04-04T13:41:54.402Z,62.74
2023-04-04T13:44:28.220Z,63.46
2023-04-04T13:47:01.006Z,63.65
2023-04-04T13:49:33.927Z,63.21
2023-04-04T13:52:06.977Z,63.18
2023-04-04T13:54:40.178Z,62.82
2023-04-04T13:57:13.585Z,62.85
2023-04-04T13:59:46.408Z,63.01
2023-04-04T14:02:20.131Z,63.53
2023-04-04T14:04:53.357Z,64.24
2023-04-04T14:07:27.365Z,65.04
2023-04-04T14:10:01.596Z,65.16
2023-04-04T14:12:35.333Z,64.77
2023-04-04T14:15:09.623Z,64.52
2023-04-04T14:17:43.743Z,64.05
2023-04-04T14:20:17.025Z,63.60
2023-04-04T14:22:50.038Z,63.01
2023-04-04T14:25:23.527Z,63.39
2023-04-04T14:27:57.709Z,63.65
2023-04-04T14:30:30.929Z,63.53
2023-04-04T14:33:04.706Z,63.35
2023-04-04T14:35:38.269Z,63.84
2023-04-04T14:38:11.747Z,63.84
2023-04-04T14:40:45.685Z,64.10
2023-04-04T14:43:18.676Z,64.39
2023-04-04T14:45:52.678Z,64.16
2023-04-04T14:48:26.290Z,64.16
2023-04-04T14:50:59.527Z,64.43
2023-04-04T14:53:34.222Z,64.44
2023-04-04T14:56:08.191Z,65.01
2023-04-04T14:58:42.143Z,64.60
2023-04-04T15:01:15.750Z,65.20
2023-04-04T15:03:51.393Z,65.16
2023-04-04T15:06:23.736Z,65.18
2023-04-04T15:08:57.844Z,65.41
2023-04-04T15:11:30.861Z,66.12
2023-04-04T15:14:04.232Z,67.09
2023-04-04T15:16:37.380Z,67.48
2023-04-04T15:19:11.688Z,67.89
2023-04-04T15:21:45.273Z,68.38
2023-04-04T15:24:18.598Z,68.87
2023-04-04T15:26:52.749Z,69.12
2023-04-04T15:29:27.294Z,69.51
2023-04-04T15:32:00.537Z,69.73
2023-04-04T15:34:33.956Z,70.27
2023-04-04T15:37:07.001Z,70.59
2023-04-04T15:39:52.269Z,71.15
2023-04-04T15:42:17.261Z,71.74
2023-04-04T15:44:51.742Z,72.23
2023-04-04T15:47:24.552Z,72.53
2023-04-04T15:49:57.426Z,73.10
2023-04-04T15:52:30.924Z,73.50
2023-04-04T15:55:04.932Z,73.88
2023-04-04T15:57:38.613Z,74.14
2023-04-04T16:00:13.725Z,74.69
2023-04-04T16:02:48.560Z,75.07
2023-04-04T16:05:21.880Z,75.25
2023-04-04T16:07:55.248Z,75.46
2023-04-04T16:10:28.781Z,75.94
2023-04-04T16:13:01.978Z,76.13
2023-04-04T16:15:35.558Z,76.47
2023-04-04T16:18:09.142Z,77.05
2023-04-04T16:20:42.715Z,77.23
2023-04-04T16:23:16.378Z,77.71
2023-04-04T16:25:51.647Z,78.28
2023-04-04T16:28:24.671Z,78.37
2023-04-04T16:31:00.007Z,78.73
2023-04-04T16:33:34.191Z,79.13
2023-04-04T16:36:07.885Z,79.18
2023-04-04T16:38:40.602Z,79.44
2023-04-04T16:41:13.635Z,79.97
2023-04-04T16:43:49.570Z,80.68
2023-04-04T16:46:23.069Z,80.66
2023-04-04T16:48:58.024Z,81.01
2023-04-04T16:51:32.219Z,81.23
2023-04-04T16:54:05.305Z,81.64
2023-04-04T16:56:39.149Z,81.75
2023-04-04T16:59:12.421Z,81.69
2023-04-04T17:01:47.295Z,81.72
2023-04-04T17:04:20.980Z,81.80
2023-04-04T17:06:55.146Z,82.03
2023-04-04T17:09:28.387Z,82.18
2023-04-04T17:12:03.552Z,82.12
2023-04-04T17:14:37.572Z,82.27
2023-04-04T17:17:10.832Z,82.37
2023-04-04T17:19:44.908Z,82.71
2023-04-04T17:22:17.240Z,82.92
2023-04-04T17:24:50.719Z,83.36
2023-04-04T17:27:23.997Z,83.61
2023-04-04T17:29:57.501Z,83.85
2023-04-04T17:32:30.770Z,83.91
2023-04-04T17:35:03.817Z,84.11
2023-04-04T17:37:37.666Z,84.33
2023-04-04T17:40:11.797Z,84.86
2023-04-04T17:42:45.055Z,85.40
2023-04-04T17:45:19.833Z,85.67
2023-04-04T17:47:53.228Z,85.72
2023-04-04T17:50:26.652Z,85.91
2023-04-04T17:53:01.886Z,86.02
2023-04-04T17:55:35.719Z,86.12
2023-04-04T17:58:09.509Z,86.60
2023-04-04T18:00:42.648Z,86.73
2023-04-04T18:03:18.309Z,87.00
2023-04-04T18:05:52.965Z,87.07
2023-04-04T18:08:25.257Z,87.35
2023-04-04T18:10:59.826Z,87.65
2023-04-04T18:13:33.573Z,87.68
2023-04-04T18:16:07.737Z,87.73
2023-04-04T18:18:42.374Z,87.63
2023-04-04T18:21:15.290Z,87.79
2023-04-04T18:23:48.805Z,87.98
2023-04-04T18:26:22.419Z,88.25
2023-04-04T18:28:56.628Z,88.42
2023-04-04T18:31:29.833Z,88.78
2023-04-04T18:34:02.954Z,88.97
2023-04-04T18:36:36.711Z,89.13
2023-04-04T18:39:09.429Z,89.29
2023-04-04T18:41:43.418Z,89.36
2023-04-04T18:44:17.233Z,89.52
2023-04-04T18:46:52.067Z,89.70
2023-04-04T18:49:25.040Z,89.81
2023-04-04T18:51:58.503Z,89.96
2023-04-04T18:54:32.225Z,89.86
2023-04-04T18:57:05.503Z,89.92
2023-04-04T18:59:38.943Z,90.02
2023-04-04T19:02:12.942Z,90.28
2023-04-04T19:04:48.586Z,90.54
2023-04-04T19:07:24.486Z,90.73
2023-04-04T19:09:58.634Z,91.02
2023-04-04T19:12:32.014Z,91.14
2023-04-04T19:15:07.249Z,91.46
2023-04-04T19:17:41.528Z,91.67
2023-04-04T19:20:15.109Z,91.98
2023-04-04T19:22:48.241Z,92.13
2023-04-04T19:25:22.053Z,92.30
2023-04-04T19:27:55.073Z,92.50
2023-04-04T19:30:48.780Z,92.64
2023-04-04T19:33:26.050Z,92.59
2023-04-04T19:36:03.114Z,92.74
2023-04-04T19:38:42.848Z,93.02
2023-04-04T19:41:23.371Z,93.01
2023-04-04T19:43:56.837Z,93.05
2023-04-04T19:46:33.249Z,92.96
2023-04-04T19:49:14.212Z,92.92
2023-04-04T19:51:56.206Z,93.00
2023-04-04T19:54:37.887Z,93.23
2023-04-04T19:57:18.829Z,93.70
2023-04-04T20:00:02.215Z,94.15
2023-04-04T20:02:50.721Z,94.55
2023-04-04T20:05:43.490Z,94.81
2023-04-04T20:08:17.138Z,95.14
2023-04-04T20:10:52.126Z,95.41
2023-04-04T20:13:25.884Z,95.60
2023-04-04T20:16:03.951Z,95.81
2023-04-04T20:18:39.820Z,96.01
2023-04-04T20:21:24.576Z,96.12
2023-04-04T20:24:10.984Z,96.11
2023-04-04T20:26:58.222Z,96.05
2023-04-04T20:29:38.033Z,96.06
2023-04-04T20:32:11.289Z,96.06
2023-04-04T20:34:50.746Z,96.09
2023-04-04T20:37:26.719Z,96.07
2023-04-04T20:40:06.341Z,96.17
2023-04-04T20:42:41.307Z,96.23
2023-04-04T20:45:31.915Z,96.23
2023-04-04T20:48:07.500Z,96.20
2023-04-04T20:50:44.340Z,96.12
2023-04-04T20:53:19.777Z,96.05
2023-04-04T20:55:54.347Z,96.03
2023-04-04T20:58:31.475Z,96.10
2023-04-04T21:01:04.724Z,96.03
2023-04-04T21:03:38.801Z,95.94
2023-04-04T21:06:17.748Z,95.80
2023-04-04T21:08:52.433Z,95.77
2023-04-04T21:11:30.823Z,95.71
2023-04-04T21:14:03.672Z,95.61
2023-04-04T21:16:38.549Z,95.55
2023-04-04T21:19:12.991Z,95.55
2023-04-04T21:21:46.159Z,95.55
2023-04-04T21:24:19.304Z,95.46
2023-04-04T21:26:52.375Z,95.47
2023-04-04T21:29:29.938Z,95.44
2023-04-04T21:32:04.130Z,95.50
2023-04-04T21:34:37.192Z,95.64
2023-04-04T21:37:11.968Z,95.77
2023-04-04T21:39:45.368Z,95.91
2023-04-04T21:42:19.866Z,96.04
2023-04-04T21:44:52.904Z,96.31
2023-04-04T21:47:25.638Z,96.46
2023-04-04T21:49:59.921Z,96.68
2023-04-04T21:52:33.197Z,96.92
2023-04-04T21:55:06.664Z,97.17
2023-04-04T21:57:39.673Z,97.37
2023-04-04T22:00:13.960Z,97.61
2023-04-04T22:02:47.398Z,97.70
2023-04-04T22:05:23.826Z,97.74
2023-04-04T22:07:55.366Z,97.73
2023-04-04T22:10:29.823Z,97.77
2023-04-04T22:13:04.469Z,97.78
2023-04-04T22:15:38.862Z,97.84
2023-04-04T22:18:13.690Z,97.81
2023-04-04T22:20:51.171Z,97.87
2023-04-04T22:23:23.964Z,97.87
2023-04-04T22:25:56.926Z,97.80
2023-04-04T22:28:30.082Z,97.79
2023-04-04T22:31:04.607Z,97.81
2023-04-04T22:33:38.865Z,97.79
2023-04-04T22:36:11.973Z,97.73
2023-04-04T22:38:45.387Z,97.72
2023-04-04T22:41:18.150Z,98.05
2023-04-04T22:43:52.645Z,97.87
2023-04-04T22:46:26.961Z,98.08
2023-04-04T22:49:06.129Z,98.29
2023-04-04T22:51:40.701Z,98.47
2023-04-04T22:54:16.994Z,98.66
2023-04-04T22:56:50.513Z,98.86
2023-04-04T22:59:24.006Z,98.92
2023-04-04T23:01:58.048Z,99.08
2023-04-04T23:04:31.619Z,99.05
2023-04-04T23:07:04.543Z,99.07
2023-04-04T23:09:38.610Z,98.96
2023-04-04T23:12:11.944Z,98.95
2023-04-04T23:14:47.516Z,98.87
2023-04-04T23:17:20.351Z,98.86
2023-04-04T23:19:53.268Z,98.95
2023-04-04T23:22:27.164Z,99.14
2023-04-04T23:25:00.351Z,99.24
2023-04-04T23:27:33.843Z,99.36
2023-04-04T23:30:08.394Z,99.38
2023-04-04T23:32:42.597Z,99.36
2023-04-04T23:35:16.160Z,99.37
2023-04-04T23:37:49.021Z,99.44
2023-04-04T23:40:22.348Z,99.56
2023-04-04T23:42:56.076Z,99.78
2023-04-04T23:45:29.599Z,100.00
2023-04-04T23:48:03.191Z,100.00
2023-04-04T23:50:36.200Z,100.00
2023-04-04T23:53:09.216Z,100.00
2023-04-04T23:55:42.501Z,100.00
2023-04-04T23:58:17.247Z,100.00
